createdAt,value
2022-10-01T00:01:19.064Z,99303.75
2022-10-01T00:03:46.577Z,99311.00
2022-10-01T00:06:19.561Z,99303.03
2022-10-01T00:08:48.856Z,99305.91
2022-10-01T00:11:19.200Z,99310.78
2022-10-01T00:13:47.444Z,99306.53
2022-10-01T00:16:18.364Z,99298.44
2022-10-01T00:18:47.002Z,99296.75
2022-10-01T00:21:17.867Z,99297.03
2022-10-01T00:23:45.621Z,99287.69
2022-10-01T00:26:18.556Z,99289.00
2022-10-01T00:28:47.748Z,99288.00
2022-10-01T00:31:16.195Z,99284.47
2022-10-01T00:33:43.493Z,99280.06
2022-10-01T00:36:11.590Z,99284.63
2022-10-01T00:38:39.870Z,99282.59
2022-10-01T00:41:08.381Z,99283.75
2022-10-01T00:43:38.883Z,99288.56
2022-10-01T00:46:29.395Z,99282.28
2022-10-01T00:49:07.285Z,99279.91
2022-10-01T00:51:38.668Z,99280.28
2022-10-01T00:54:11.501Z,99278.41
2022-10-01T00:56:39.166Z,99276.94
2022-10-01T00:59:07.393Z,99269.84
2022-10-01T01:01:37.300Z,99261.38
2022-10-01T01:04:05.856Z,99255.75
2022-10-01T01:06:32.997Z,99249.47
2022-10-01T01:09:00.118Z,99256.56
2022-10-01T01:11:52.914Z,99250.34
2022-10-01T01:14:51.093Z,99246.31
2022-10-01T01:17:29.797Z,99241.88
2022-10-01T01:20:00.081Z,99248.16
2022-10-01T01:22:31.212Z,99231.06
2022-10-01T01:25:15.064Z,99225.81
2022-10-01T01:27:53.842Z,99227.19
2022-10-01T01:30:21.081Z,99231.44
2022-10-01T01:32:51.145Z,99218.63
2022-10-01T01:35:42.828Z,99213.53
2022-10-01T01:38:14.685Z,99217.25
2022-10-01T01:40:43.340Z,99214.53
2022-10-01T01:43:14.808Z,99210.97
2022-10-01T01:45:43.558Z,99217.56
2022-10-01T01:48:11.442Z,99214.38
2022-10-01T01:50:52.953Z,99210.97
2022-10-01T01:53:20.188Z,99207.28
2022-10-01T01:55:48.575Z,99202.19
2022-10-01T01:58:19.942Z,99196.28
2022-10-01T02:00:51.256Z,99189.34
2022-10-01T02:03:21.013Z,99184.50
2022-10-01T02:06:11.512Z,99180.94
2022-10-01T02:08:41.233Z,99186.34
2022-10-01T02:11:22.971Z,99184.34
2022-10-01T02:14:32.458Z,99177.91
2022-10-01T02:17:13.361Z,99169.09
2022-10-01T02:19:46.405Z,99170.63
2022-10-01T02:22:20.309Z,99167.63
2022-10-01T02:24:50.241Z,99160.69
2022-10-01T02:27:28.891Z,99162.22
2022-10-01T02:29:59.507Z,99159.50
2022-10-01T02:32:28.835Z,99163.59
2022-10-01T02:34:57.658Z,99157.97
2022-10-01T02:37:27.059Z,99149.84
2022-10-01T02:39:57.766Z,99151.69
2022-10-01T02:42:28.677Z,99148.84
2022-10-01T02:44:59.734Z,99146.47
2022-10-01T02:47:41.171Z,99150.72
2022-10-01T02:50:09.274Z,99151.88
2022-10-01T02:52:52.780Z,99149.69
2022-10-01T02:55:23.165Z,99135.66
2022-10-01T02:57:50.664Z,99134.34
2022-10-01T03:00:19.043Z,99138.69
2022-10-01T03:02:46.217Z,99134.81
2022-10-01T03:05:14.252Z,99136.53
2022-10-01T03:07:41.624Z,99141.94
2022-10-01T03:10:10.965Z,99142.81
2022-10-01T03:12:38.742Z,99135.22
2022-10-01T03:15:06.293Z,99138.78
2022-10-01T03:17:33.390Z,99135.56
2022-10-01T03:20:00.687Z,99128.16
2022-10-01T03:22:27.834Z,99133.25
2022-10-01T03:24:55.014Z,99127.16
2022-10-01T03:27:23.067Z,99128.38
2022-10-01T03:29:50.523Z,99124.84
2022-10-01T03:32:18.668Z,99128.44
2022-10-01T03:34:46.349Z,99129.66
2022-10-01T03:37:13.844Z,99136.06
2022-10-01T03:39:41.041Z,99140.84
2022-10-01T03:42:08.100Z,99147.81
2022-10-01T03:44:35.494Z,99151.72
2022-10-01T03:47:02.904Z,99157.16
2022-10-01T03:49:29.888Z,99142.78
2022-10-01T03:51:56.933Z,99146.31
2022-10-01T03:54:23.938Z,99140.13
2022-10-01T03:56:50.949Z,99144.69
2022-10-01T03:59:18.016Z,99140.28
2022-10-01T04:01:45.389Z,99134.88
2022-10-01T04:04:12.468Z,99144.34
2022-10-01T04:06:39.507Z,99143.50
2022-10-01T04:09:06.748Z,99137.03
2022-10-01T04:11:34.041Z,99138.88
2022-10-01T04:14:01.293Z,99131.59
2022-10-01T04:16:28.645Z,99119.69
2022-10-01T04:18:55.705Z,99118.81
2022-10-01T04:21:22.712Z,99118.78
2022-10-01T04:23:49.935Z,99124.72
2022-10-01T04:26:17.216Z,99129.75
2022-10-01T04:28:44.382Z,99117.66
2022-10-01T04:31:11.484Z,99115.78
2022-10-01T04:33:38.511Z,99114.00
2022-10-01T04:36:05.688Z,99114.59
2022-10-01T04:38:33.004Z,99115.59
2022-10-01T04:41:00.044Z,99115.53
2022-10-01T04:43:27.114Z,99113.78
2022-10-01T04:45:54.163Z,99108.28
2022-10-01T04:48:21.189Z,99119.94
2022-10-01T04:50:48.281Z,99115.16
2022-10-01T04:53:15.375Z,99121.22
2022-10-01T04:55:42.594Z,99108.78
2022-10-01T04:58:09.870Z,99122.47
2022-10-01T05:00:36.956Z,99113.94
2022-10-01T05:03:04.019Z,99112.19
2022-10-01T05:05:31.086Z,99113.84
2022-10-01T05:07:58.134Z,99119.63
2022-10-01T05:10:25.120Z,99107.53
2022-10-01T05:12:52.118Z,99102.53
2022-10-01T05:15:19.301Z,99106.63
2022-10-01T05:17:46.832Z,99104.19
2022-10-01T05:20:19.280Z,99104.84
2022-10-01T05:22:47.092Z,99097.69
2022-10-01T05:25:14.349Z,99102.78
2022-10-01T05:27:42.100Z,99111.63
2022-10-01T05:30:10.445Z,99102.41
2022-10-01T05:32:38.352Z,99094.06
2022-10-01T05:35:07.919Z,99104.38
2022-10-01T05:37:35.437Z,99112.53
2022-10-01T05:40:02.563Z,99100.66
2022-10-01T05:42:29.688Z,99100.25
2022-10-01T05:44:56.730Z,99094.44
2022-10-01T05:47:23.713Z,99096.97
2022-10-01T05:49:50.722Z,99097.81
2022-10-01T05:52:17.857Z,99109.00
2022-10-01T05:54:44.969Z,99117.72
2022-10-01T05:57:11.979Z,99114.13
2022-10-01T05:59:39.079Z,99113.41
2022-10-01T06:02:06.562Z,99112.84
2022-10-01T06:04:37.737Z,99104.69
2022-10-01T06:07:07.495Z,99097.72
2022-10-01T06:09:34.604Z,99090.03
2022-10-01T06:12:01.851Z,99080.38
2022-10-01T06:14:28.903Z,99066.19
2022-10-01T06:16:56.017Z,99051.25
2022-10-01T06:19:23.139Z,99053.44
2022-10-01T06:21:50.161Z,99032.50
2022-10-01T06:24:17.176Z,99030.97
2022-10-01T06:26:44.185Z,99027.34
2022-10-01T06:29:11.318Z,99025.25
2022-10-01T06:31:38.806Z,99017.94
2022-10-01T06:34:06.140Z,99000.56
2022-10-01T06:36:34.063Z,99009.41
2022-10-01T06:39:01.211Z,98998.69
2022-10-01T06:41:28.285Z,98989.94
2022-10-01T06:43:55.320Z,98984.97
2022-10-01T06:46:22.404Z,98974.91
2022-10-01T06:48:49.518Z,98972.66
2022-10-01T06:51:16.537Z,98982.31
2022-10-01T06:53:43.564Z,98974.97
2022-10-01T06:56:10.703Z,98976.41
2022-10-01T06:58:37.816Z,98979.59
2022-10-01T07:01:05.046Z,98981.91
2022-10-01T07:03:32.190Z,98981.28
2022-10-01T07:06:04.741Z,98975.25
2022-10-01T07:08:32.045Z,98979.06
2022-10-01T07:11:00.703Z,98975.97
2022-10-01T07:13:28.044Z,98978.88
2022-10-01T07:15:55.110Z,98977.66
2022-10-01T07:18:22.250Z,98973.91
2022-10-01T07:20:49.264Z,98988.72
2022-10-01T07:23:16.316Z,98988.81
2022-10-01T07:25:44.097Z,98975.47
2022-10-01T07:28:14.885Z,98952.56
2022-10-01T07:30:43.825Z,98949.91
2022-10-01T07:33:11.038Z,98953.25
2022-10-01T07:35:38.125Z,98951.81
2022-10-01T07:38:05.136Z,98955.22
2022-10-01T07:40:32.136Z,98975.13
2022-10-01T07:42:59.209Z,98971.75
2022-10-01T07:45:26.364Z,98951.06
2022-10-01T07:47:58.622Z,98962.81
2022-10-01T07:50:27.002Z,98942.75
2022-10-01T07:52:55.127Z,98937.94
2022-10-01T07:55:24.340Z,98932.09
2022-10-01T07:57:55.855Z,98934.44
2022-10-01T08:00:24.662Z,98928.59
2022-10-01T08:02:53.532Z,98927.50
2022-10-01T08:05:23.384Z,98931.91
2022-10-01T08:07:51.475Z,98954.75
2022-10-01T08:10:19.813Z,98958.97
2022-10-01T08:12:46.743Z,98963.38
2022-10-01T08:15:16.070Z,98962.50
2022-10-01T08:17:43.988Z,98968.44
2022-10-01T08:20:14.292Z,98961.34
2022-10-01T08:22:42.478Z,98942.47
2022-10-01T08:25:10.082Z,98931.31
2022-10-01T08:27:37.085Z,98928.19
2022-10-01T08:30:05.065Z,98914.53
2022-10-01T08:32:32.266Z,98901.13
2022-10-01T08:34:59.278Z,98919.38
2022-10-01T08:37:29.201Z,98970.50
2022-10-01T08:39:56.707Z,98956.91
2022-10-01T08:42:50.960Z,98962.38
2022-10-01T08:45:25.435Z,98956.47
2022-10-01T08:48:03.547Z,98959.63
2022-10-01T08:50:36.190Z,98953.56
2022-10-01T08:53:07.109Z,98958.00
2022-10-01T08:55:36.140Z,98953.19
2022-10-01T08:58:09.888Z,98958.41
2022-10-01T09:00:42.006Z,98938.25
2022-10-01T09:03:12.932Z,98961.13
2022-10-01T09:06:00.570Z,98959.91
2022-10-01T09:09:12.605Z,98975.47
2022-10-01T09:11:42.436Z,98954.94
2022-10-01T09:14:23.132Z,98968.19
2022-10-01T09:17:31.076Z,98975.38
2022-10-01T09:20:34.940Z,98966.38
2022-10-01T09:23:28.165Z,98963.66
2022-10-01T09:25:56.199Z,98972.72
2022-10-01T09:28:27.568Z,98963.06
2022-10-01T09:31:13.939Z,98962.47
2022-10-01T09:33:46.674Z,98963.09
2022-10-01T09:36:22.564Z,98945.69
2022-10-01T09:38:58.405Z,98953.19
2022-10-01T09:41:25.483Z,98959.78
2022-10-01T09:43:52.470Z,98961.03
2022-10-01T09:46:19.662Z,98961.19
2022-10-01T09:49:02.174Z,98957.25
2022-10-01T09:51:55.844Z,98959.59
2022-10-01T09:54:34.395Z,98964.41
2022-10-01T09:57:05.290Z,98965.13
2022-10-01T09:59:52.936Z,98954.84
2022-10-01T10:02:26.331Z,98961.03
2022-10-01T10:05:14.702Z,98960.38
2022-10-01T10:07:47.928Z,98946.56
2022-10-01T10:10:36.256Z,98951.03
2022-10-01T10:13:30.794Z,98956.03
2022-10-01T10:15:58.543Z,98957.31
2022-10-01T10:18:31.419Z,98951.63
2022-10-01T10:21:01.425Z,98956.31
2022-10-01T10:23:28.603Z,98948.53
2022-10-01T10:26:01.365Z,98955.66
2022-10-01T10:28:44.197Z,98966.56
2022-10-01T10:31:16.623Z,98964.00
2022-10-01T10:33:50.019Z,98974.78
2022-10-01T10:36:19.468Z,98972.47
2022-10-01T10:38:51.831Z,98970.41
2022-10-01T10:41:20.767Z,98971.25
2022-10-01T10:43:48.954Z,98970.81
2022-10-01T10:46:34.049Z,98968.53
2022-10-01T10:49:08.528Z,98980.94
2022-10-01T10:51:50.045Z,98982.00
2022-10-01T10:54:19.637Z,98982.84
2022-10-01T10:57:00.441Z,98979.00
2022-10-01T10:59:32.421Z,98976.72
2022-10-01T11:02:02.293Z,98972.75
2022-10-01T11:04:42.472Z,98979.91
2022-10-01T11:07:11.482Z,98975.47
2022-10-01T11:09:56.072Z,98974.22
2022-10-01T11:12:35.647Z,98972.75
2022-10-01T11:15:41.410Z,98980.09
2022-10-01T11:18:33.665Z,98975.69
2022-10-01T11:21:19.230Z,98976.75
2022-10-01T11:23:48.871Z,98978.88
2022-10-01T11:26:26.187Z,98974.91
2022-10-01T11:29:16.632Z,98968.78
2022-10-01T11:31:51.941Z,98978.06
2022-10-01T11:35:03.729Z,98974.28
2022-10-01T11:37:36.442Z,98966.34
2022-10-01T11:40:24.297Z,98975.16
2022-10-01T11:42:56.748Z,98971.38
2022-10-01T11:45:35.180Z,98974.78
2022-10-01T11:48:08.090Z,98963.41
2022-10-01T11:50:39.907Z,98963.00
2022-10-01T11:53:23.916Z,98968.44
2022-10-01T11:56:02.723Z,98970.53
2022-10-01T11:58:38.702Z,98963.19
2022-10-01T12:01:11.359Z,98980.22
2022-10-01T12:03:49.805Z,98985.47
2022-10-01T12:06:23.147Z,98982.09
2022-10-01T12:09:29.710Z,98977.28
2022-10-01T12:12:09.091Z,98981.28
2022-10-01T12:14:46.228Z,98991.19
2022-10-01T12:17:32.217Z,98990.97
2022-10-01T12:20:03.606Z,98988.63
2022-10-01T12:22:35.540Z,98980.88
2022-10-01T12:25:02.541Z,98976.84
2022-10-01T12:27:51.232Z,98986.13
2022-10-01T12:30:20.368Z,98981.69
2022-10-01T12:33:12.705Z,98998.72
2022-10-01T12:35:51.955Z,99006.28
2022-10-01T12:38:37.685Z,98999.31
2022-10-01T12:41:14.393Z,98994.59
2022-10-01T12:44:20.133Z,98984.91
2022-10-01T12:47:08.821Z,98997.22
2022-10-01T12:49:52.074Z,98995.16
2022-10-01T12:52:27.936Z,98994.84
2022-10-01T12:54:59.079Z,98997.72
2022-10-01T12:57:29.231Z,98998.94
2022-10-01T13:00:09.972Z,98996.09
2022-10-01T13:03:03.328Z,99002.63
2022-10-01T13:05:39.308Z,98993.75
2022-10-01T13:08:06.246Z,99001.59
2022-10-01T13:11:10.896Z,99005.25
2022-10-01T13:13:38.168Z,98994.06
2022-10-01T13:16:26.994Z,98995.31
2022-10-01T13:19:18.066Z,98992.44
2022-10-01T13:21:50.983Z,98988.53
2022-10-01T13:24:20.952Z,98988.53
2022-10-01T13:27:01.604Z,98987.03
2022-10-01T13:29:34.548Z,98996.50
2022-10-01T13:32:04.507Z,98997.00
2022-10-01T13:34:38.016Z,98989.59
2022-10-01T13:37:30.036Z,98973.28
2022-10-01T13:39:57.975Z,98985.66
2022-10-01T13:42:43.018Z,98973.47
2022-10-01T13:45:38.972Z,98987.84
2022-10-01T13:48:14.781Z,98995.22
2022-10-01T13:50:55.482Z,98987.56
2022-10-01T13:53:25.212Z,98998.22
2022-10-01T13:55:54.125Z,98986.09
2022-10-01T13:58:30.780Z,98980.22
2022-10-01T14:01:00.608Z,98981.06
2022-10-01T14:03:39.279Z,98986.03
2022-10-01T14:06:21.123Z,98986.03
2022-10-01T14:08:51.233Z,98977.59
2022-10-01T14:11:25.212Z,98976.91
2022-10-01T14:13:52.840Z,98976.78
2022-10-01T14:16:20.062Z,98968.16
2022-10-01T14:18:49.606Z,98981.22
2022-10-01T14:21:48.841Z,98977.63
2022-10-01T14:24:40.635Z,98974.28
2022-10-01T14:27:25.624Z,98977.16
2022-10-01T14:29:58.567Z,98969.19
2022-10-01T14:32:56.264Z,98965.53
2022-10-01T14:35:34.576Z,98979.81
2022-10-01T14:38:10.827Z,98988.75
2022-10-01T14:40:46.822Z,98978.69
2022-10-01T14:43:25.500Z,98974.91
2022-10-01T14:45:55.928Z,98970.03
2022-10-01T14:48:24.990Z,98972.13
2022-10-01T14:50:54.500Z,98974.53
2022-10-01T14:53:24.801Z,98960.78
2022-10-01T14:55:56.363Z,98964.84
2022-10-01T14:58:29.759Z,98977.69
2022-10-01T15:00:57.778Z,98982.94
2022-10-01T15:03:24.962Z,98972.53
2022-10-01T15:06:02.653Z,98978.63
2022-10-01T15:08:45.713Z,98975.50
2022-10-01T15:11:17.017Z,98984.94
2022-10-01T15:13:47.872Z,98997.81
2022-10-01T15:16:23.550Z,99011.72
2022-10-01T15:18:59.494Z,99028.63
2022-10-01T15:21:46.560Z,99051.56
2022-10-01T15:24:28.347Z,99056.94
2022-10-01T15:26:57.430Z,99046.09
2022-10-01T15:29:24.390Z,99056.78
2022-10-01T15:31:52.938Z,99050.91
2022-10-01T15:34:22.490Z,99084.59
2022-10-01T15:36:50.264Z,99085.78
2022-10-01T15:39:36.278Z,99091.44
2022-10-01T15:42:22.257Z,99093.44
2022-10-01T15:44:49.958Z,99111.25
2022-10-01T15:47:20.064Z,99102.00
2022-10-01T15:50:05.112Z,99139.88
2022-10-01T15:52:38.127Z,99189.75
2022-10-01T15:55:12.718Z,99201.72
2022-10-01T15:57:39.963Z,99219.09
2022-10-01T16:00:21.686Z,99215.63
2022-10-01T16:02:49.123Z,99229.03
2022-10-01T16:05:23.549Z,99253.31
2022-10-01T16:07:55.184Z,99318.84
2022-10-01T16:10:25.062Z,99281.41
2022-10-01T16:12:52.138Z,99304.19
2022-10-01T16:15:29.095Z,99328.44
2022-10-01T16:17:59.033Z,99331.66
2022-10-01T16:20:40.602Z,99333.66
2022-10-01T16:23:47.229Z,99333.31
2022-10-01T16:26:44.744Z,99329.78
2022-10-01T16:29:11.661Z,99330.31
2022-10-01T16:31:42.418Z,99351.56
2022-10-01T16:34:15.371Z,99347.16
2022-10-01T16:36:42.792Z,99372.66
2022-10-01T16:39:10.148Z,99366.56
2022-10-01T16:41:37.284Z,99377.13
2022-10-01T16:44:04.971Z,99373.94
2022-10-01T16:46:32.690Z,99360.38
2022-10-01T16:49:00.037Z,99357.44
2022-10-01T16:51:27.071Z,99355.09
2022-10-01T16:53:54.588Z,99352.31
2022-10-01T16:56:34.189Z,99336.06
2022-10-01T16:59:01.254Z,99346.13
2022-10-01T17:01:29.015Z,99354.50
2022-10-01T17:03:56.115Z,99351.16
2022-10-01T17:06:23.146Z,99368.41
2022-10-01T17:08:50.125Z,99373.84
2022-10-01T17:11:17.154Z,99373.25
2022-10-01T17:13:44.193Z,99392.19
2022-10-01T17:16:11.245Z,99391.13
2022-10-01T17:18:38.251Z,99390.94
2022-10-01T17:21:05.578Z,99398.56
2022-10-01T17:23:32.592Z,99397.25
2022-10-01T17:25:59.608Z,99390.94
2022-10-01T17:28:26.756Z,99385.28
2022-10-01T17:30:53.785Z,99400.75
2022-10-01T17:33:20.783Z,99411.44
2022-10-01T17:35:49.540Z,99388.09
2022-10-01T17:38:16.641Z,99391.94
2022-10-01T17:40:43.643Z,99419.94
2022-10-01T17:43:12.657Z,99419.38
2022-10-01T17:45:39.826Z,99425.28
2022-10-01T17:48:07.640Z,99433.09
2022-10-01T17:50:35.033Z,99442.28
2022-10-01T17:53:02.018Z,99458.00
2022-10-01T17:55:29.072Z,99464.97
2022-10-01T17:57:56.066Z,99449.44
2022-10-01T18:00:23.111Z,99467.31
2022-10-01T18:02:50.172Z,99458.31
2022-10-01T18:05:17.314Z,99475.84
2022-10-01T18:07:44.336Z,99481.28
2022-10-01T18:10:13.017Z,99502.34
2022-10-01T18:12:40.489Z,99507.06
2022-10-01T18:15:08.330Z,99501.03
2022-10-01T18:17:36.644Z,99517.50
2022-10-01T18:20:05.787Z,99528.25
2022-10-01T18:22:33.608Z,99524.72
2022-10-01T18:25:01.012Z,99539.38
2022-10-01T18:27:28.023Z,99541.28
2022-10-01T18:29:55.015Z,99540.53
2022-10-01T18:32:27.286Z,99564.94
2022-10-01T18:34:59.228Z,99584.38
2022-10-01T18:37:37.740Z,99585.69
2022-10-01T18:40:18.131Z,99573.31
2022-10-01T18:42:57.523Z,99587.63
2022-10-01T18:45:37.097Z,99593.75
2022-10-01T18:48:28.233Z,99591.84
2022-10-01T18:51:08.101Z,99604.03
2022-10-01T18:54:19.447Z,99596.25
2022-10-01T18:57:07.927Z,99592.00
2022-10-01T18:59:56.605Z,99573.63
2022-10-01T19:02:50.263Z,99567.16
2022-10-01T19:05:29.828Z,99574.47
2022-10-01T19:08:31.980Z,99577.78
2022-10-01T19:11:05.014Z,99585.34
2022-10-01T19:14:09.680Z,99594.31
2022-10-01T19:16:50.909Z,99598.91
2022-10-01T19:19:31.754Z,99606.28
2022-10-01T19:22:14.432Z,99607.03
2022-10-01T19:25:19.795Z,99603.50
2022-10-01T19:28:02.166Z,99637.53
2022-10-01T19:30:40.812Z,99651.38
2022-10-01T19:33:13.051Z,99678.88
2022-10-01T19:35:51.388Z,99676.59
2022-10-01T19:38:28.694Z,99681.44
2022-10-01T19:41:02.483Z,99676.34
2022-10-01T19:43:38.216Z,99680.41
2022-10-01T19:46:10.876Z,99686.56
2022-10-01T19:48:53.074Z,99678.34
2022-10-01T19:51:24.592Z,99685.78
2022-10-01T19:53:58.108Z,99687.47
2022-10-01T19:56:30.642Z,99693.19
2022-10-01T19:59:06.341Z,99695.94
2022-10-01T20:01:55.242Z,99700.56
2022-10-01T20:04:36.066Z,99699.44
2022-10-01T20:07:10.919Z,99703.50
2022-10-01T20:09:45.691Z,99709.53
2022-10-01T20:12:43.235Z,99706.06
2022-10-01T20:15:31.508Z,99705.97
2022-10-01T20:18:13.405Z,99707.75
2022-10-01T20:20:50.415Z,99720.78
2022-10-01T20:23:40.244Z,99731.59
2022-10-01T20:26:35.244Z,99726.53
2022-10-01T20:29:36.787Z,99735.06
2022-10-01T20:32:24.325Z,99732.06
2022-10-01T20:34:53.978Z,99738.34
2022-10-01T20:37:26.884Z,99740.34
2022-10-01T20:40:01.496Z,99751.09
2022-10-01T20:42:38.864Z,99762.19
2022-10-01T20:45:16.949Z,99764.41
2022-10-01T20:47:51.120Z,99759.34
2022-10-01T20:50:28.170Z,99770.16
2022-10-01T20:53:07.618Z,99769.19
2022-10-01T20:55:40.744Z,99765.31
2022-10-01T20:58:16.856Z,99762.81
2022-10-01T21:00:46.086Z,99760.16
2022-10-01T21:03:29.301Z,99766.19
2022-10-01T21:06:13.998Z,99776.13
2022-10-01T21:08:47.151Z,99781.75
2022-10-01T21:11:34.120Z,99774.66
2022-10-01T21:14:23.189Z,99782.72
2022-10-01T21:16:56.251Z,99781.06
2022-10-01T21:19:42.621Z,99790.47
2022-10-01T21:22:36.995Z,99797.66
2022-10-01T21:25:31.508Z,99800.56
2022-10-01T21:28:40.056Z,99811.16
2022-10-01T21:31:19.018Z,99826.47
2022-10-01T21:34:04.546Z,99831.13
2022-10-01T21:36:38.913Z,99837.56
2022-10-01T21:39:17.350Z,99849.16
2022-10-01T21:41:57.968Z,99844.38
2022-10-01T21:45:06.612Z,99857.00
2022-10-01T21:47:36.498Z,99867.56
2022-10-01T21:50:14.691Z,99866.03
2022-10-01T21:53:01.409Z,99871.16
2022-10-01T21:55:47.832Z,99871.84
2022-10-01T21:58:32.882Z,99882.06
2022-10-01T22:01:13.305Z,99881.91
2022-10-01T22:04:05.091Z,99884.28
2022-10-01T22:06:55.329Z,99896.75
2022-10-01T22:09:39.127Z,99890.78
2022-10-01T22:12:07.313Z,99902.84
2022-10-01T22:14:34.639Z,99902.53
2022-10-01T22:17:18.164Z,99910.19
2022-10-01T22:19:50.310Z,99912.22
2022-10-01T22:22:23.864Z,99912.59
2022-10-01T22:24:57.080Z,99920.94
2022-10-01T22:27:30.188Z,99926.88
2022-10-01T22:30:09.251Z,99931.16
2022-10-01T22:33:02.855Z,99940.34
2022-10-01T22:35:39.486Z,99938.66
2022-10-01T22:38:21.387Z,99942.38
2022-10-01T22:40:58.352Z,99949.56
2022-10-01T22:43:25.431Z,99956.38
2022-10-01T22:46:11.164Z,99953.09
2022-10-01T22:48:46.545Z,99960.63
2022-10-01T22:51:45.516Z,99952.06
2022-10-01T22:54:28.793Z,99960.94
2022-10-01T22:57:35.182Z,99967.25
2022-10-01T23:00:11.074Z,99980.66
2022-10-01T23:03:02.993Z,99981.03
2022-10-01T23:06:08.319Z,99989.00
2022-10-01T23:08:54.010Z,99986.50
2022-10-01T23:11:32.605Z,99997.75
2022-10-01T23:14:11.303Z,99997.22
2022-10-01T23:16:50.518Z,99998.25
2022-10-01T23:19:29.530Z,99999.28
2022-10-01T23:22:04.151Z,100008.66
2022-10-01T23:24:46.248Z,100017.34
2022-10-01T23:27:16.128Z,100019.41
2022-10-01T23:30:03.630Z,100031.13
2022-10-01T23:32:39.720Z,100020.41
2022-10-01T23:35:06.677Z,100017.00
2022-10-01T23:37:42.800Z,100021.25
2022-10-01T23:40:14.615Z,100024.31
2022-10-01T23:42:41.483Z,100025.34
2022-10-01T23:45:14.442Z,100032.88
2022-10-01T23:48:04.261Z,100036.25
2022-10-01T23:50:37.284Z,100041.53
2022-10-01T23:53:16.348Z,100048.19
2022-10-01T23:55:49.846Z,100047.16
2022-10-01T23:58:20.335Z,100047.81
